Lowlands, Sint Maarten

6:19 PM AST on April 30, 2017 (GMT -0400)
Saint Martin | | Change Station

Elev 111 ft 18.07 °N, 63.14 °W | Updated 3 minutes ago

Scattered Clouds
Scattered Clouds
77.9 °F
Feels Like 80 °F
N
3.8
Wind Variable Wind from ENE
Gusts 5.6 mph

Today
High -- | Low -- °F
--% Chance of Precip.
Yesterday
High -- | Low -- °F
Precip. -- in
Pressure 30.04 in
Visibility 6.2 miles
Clouds Few 1600 ft
Scattered Clouds 4000 ft
Heat Index 80 °F
Dew Point 69 °F
Humidity 75%
Rainfall 0.25 in
Snow Depth Not available.
5:46 AM 6:33 PM
Waxing Crescent, 26% visible
METAR TNCM 302200Z 06013KT 9999 FEW016TCU SCT040 26/23 Q1017 A3003 NOSIG
Pressure 30.04 in
Visibility 6.2 miles
Clouds Few 1600 ft
Scattered Clouds 4000 ft
Heat Index 80 °F
Dew Point 69 °F
Humidity 75%
Rainfall 0.25 in
Snow Depth Not available.
5:46 AM 6:33 PM
Waxing Crescent, 26% visible
METAR TNCM 302200Z 06013KT 9999 FEW016TCU SCT040 26/23 Q1017 A3003 NOSIG

Get Severe Weather Alerts

Thanks for signing up!

Be on the lookout for a verification email in your inbox.

You'll start receiving the daily forecast at 8 AM.

×

10-Day Weather Forecast

No radar image for this location.
×

Almanac

Astronomy

Apr. 30, 2017 Rise Set
Actual Time
Civil Twilight
Nautical Twilight
Astronomical Twilight
Moon
Length of Visible Light
Length of Day
Tomorrow will be .
, % of the Moon is Illuminated

Today's Extremes

Country Highs Country Lows

Community

WunderPhotos

WunderBlog® & News

Nearby

Air Quality

  Air Quality AQ Index Pollutant
Not available.

Snow Depth

Station Depth Elevation

Earthquake Activity

City Distance Mag. Time & Date
Minimum magnitude displayed is 2.5.

Coastal Water Temperatures

Place Temperature

Stations

Nearby Weather Stations

Station Location Temp. Windchill Dew Point Humidity Wind Precip. Elev Updated Type